1G6 weather

Michael Airfield
Cicero, New York, United States

Public forecast

Using degrees Fahrenheit for public forecast. Weather courtesy of forecast.io.

METAR (pilot weather report)

Closest report is Syracuse Hancock International Airport, 4.3 nm (8.0 km) SSE. Retrieved 2019/09/23 11:54 UTC (36 minutes ago):

KSYR 231154Z 20011KT 10SM FEW080 SCT120 BKN150 BKN200 25/15 A2978 RMK AO2 SLP079 T02500150 10250 20233 58011

TAF (pilot weather forecast)

Closest forecast is Syracuse Hancock International Airport, 4.3 nm (8.0 km) SSE. Retrieved 2019/09/23 12:42 UTC (0 seconds ago):

TAF KSYR 231139Z 2312/2412 22008KT P6SM SCT070 BKN150 FM231600 24012G20KT P6SM BKN060 OVC120 TEMPO 2316/2320 4SM -SHRA OVC025 FM240000 27012KT P6SM SCT045 BKN080 FM240700 27005KT P6SM BKN025 FM240900 27005KT P6SM -SHRA BKN015 OVC040